BNN weather

Brønnøysund Airport
Brønnøy, Nordland, Norway

Public forecast

Using degrees Celsius for public forecast. Weather courtesy of forecast.io.

METAR (pilot weather report)

Retrieved 2019/05/27 06:20 UTC (18 minutes ago):

ENBN 270620Z 17009KT 140V200 9999 VCSH FEW020 BKN040 06/01 Q0997

TAF (pilot weather forecast)

Forecast is more than 12 hours old.

Closest forecast is Hemavan Airport, 73.9 nm (136.9 km) ENE. Retrieved 2009/10/12 22:40 UTC (10 years ago):

TAF TAF LTCC 122240Z 13 SASN33 ESWI 130020 RRA METAR ESUT 130020Z AUTO 00000KT 9999NDV NCD M08/M10 Q1022